Time;durP1;ratioP1;P1;durP2;ratioP2;P2;SDS_P1;SDS_P2;PMS_P1;PMS_P2;Temp;Humidity;BMP_temperature;BMP_pressure;BME280_temperature;BME280_humidity;BME280_pressure;Samples;Min_cycle;Max_cycle;Signal;HPM_P1;HPM_P2
2022/02/28 00:01:10;;;;;;;13.93;6.95;;;-0.50;99.90;;;;;;4944137;28;20428;-32
2022/02/28 00:03:35;;;;;;;11.60;5.75;;;-0.50;99.90;;;;;;4950755;28;20156;-32
2022/02/28 00:06:01;;;;;;;10.68;6.22;;;-0.50;99.90;;;;;;4946800;28;20046;-33
2022/02/28 00:08:27;;;;;;;11.95;6.00;;;-0.50;99.90;;;;;;4956213;28;20145;-32
2022/02/28 00:10:53;;;;;;;10.18;6.10;;;-0.70;99.90;;;;;;4946117;28;20031;-32
2022/02/28 00:13:19;;;;;;;9.80;6.20;;;-0.70;99.90;;;;;;4947523;28;20046;-33
2022/02/28 00:15:44;;;;;;;8.77;6.18;;;-0.80;99.90;;;;;;4947054;28;20555;-33
2022/02/28 00:18:10;;;;;;;9.77;5.57;;;-0.70;99.90;;;;;;4944213;28;20043;-32
2022/02/28 00:20:36;;;;;;;12.70;6.63;;;-0.70;99.90;;;;;;4944583;28;20035;-33
2022/02/28 00:23:02;;;;;;;11.95;6.43;;;-0.80;99.90;;;;;;4951473;28;20035;-32
2022/02/28 00:25:28;;;;;;;11.68;6.70;;;-0.90;99.90;;;;;;4949685;28;20029;-32
2022/02/28 00:27:54;;;;;;;14.45;7.38;;;-0.90;99.90;;;;;;4949191;28;20027;-32
2022/02/28 00:30:21;;;;;;;11.60;6.57;;;-1.00;99.90;;;;;;4951067;28;20191;-32
2022/02/28 00:32:47;;;;;;;14.30;6.82;;;-1.00;99.90;;;;;;4946294;28;20038;-33
2022/02/28 00:35:13;;;;;;;10.55;6.22;;;-1.00;99.90;;;;;;4944282;28;20031;-32
2022/02/28 00:37:38;;;;;;;10.70;6.03;;;-1.00;99.90;;;;;;4949228;28;20039;-32
2022/02/28 00:40:05;;;;;;;11.40;6.55;;;-1.10;99.90;;;;;;4949688;28;20034;-33
2022/02/28 00:42:31;;;;;;;12.98;6.53;;;-1.00;99.90;;;;;;4943861;28;20062;-33
2022/02/28 00:44:57;;;;;;;16.27;6.95;;;-1.00;99.90;;;;;;4944491;28;20085;-33
2022/02/28 00:47:22;;;;;;;9.73;6.80;;;-1.00;99.90;;;;;;4941552;28;20038;-32
2022/02/28 00:49:49;;;;;;;9.25;6.07;;;-1.00;99.90;;;;;;4947145;28;20023;-33
2022/02/28 00:52:14;;;;;;;16.90;7.35;;;-1.10;99.90;;;;;;4949854;28;20522;-32
2022/02/28 00:54:40;;;;;;;13.63;6.40;;;-1.10;99.90;;;;;;4948430;28;20039;-33
2022/02/28 00:57:06;;;;;;;9.75;6.13;;;-1.10;99.90;;;;;;4944120;28;20034;-32
2022/02/28 00:59:31;;;;;;;12.48;6.72;;;-1.10;99.90;;;;;;4948279;28;20039;-32
2022/02/28 01:01:57;;;;;;;9.60;5.85;;;-1.10;99.90;;;;;;4947010;28;20411;-32
2022/02/28 01:04:23;;;;;;;13.00;6.97;;;-1.00;99.90;;;;;;4943689;28;20480;-32
2022/02/28 01:06:48;;;;;;;10.55;6.45;;;-0.90;99.90;;;;;;4944295;28;20136;-32
2022/02/28 01:09:14;;;;;;;10.38;6.95;;;-1.00;99.90;;;;;;4951722;28;20059;-32
2022/02/28 01:11:40;;;;;;;12.73;6.95;;;-0.90;99.90;;;;;;4948149;28;20031;-32
2022/02/28 01:14:05;;;;;;;13.18;6.80;;;-1.00;99.90;;;;;;4947653;28;20037;-32
2022/02/28 01:16:31;;;;;;;11.13;7.50;;;-1.10;99.90;;;;;;4942818;28;20035;-32
2022/02/28 01:18:57;;;;;;;9.05;6.63;;;-1.10;99.90;;;;;;4946757;28;20035;-32
2022/02/28 01:21:23;;;;;;;11.23;6.53;;;-1.30;99.90;;;;;;4944663;28;20042;-33
2022/02/28 01:23:49;;;;;;;13.30;8.52;;;-1.30;99.90;;;;;;4948150;28;20034;-32
2022/02/28 01:26:15;;;;;;;9.88;6.57;;;-1.30;99.90;;;;;;4945359;28;20109;-32
2022/02/28 01:28:40;;;;;;;11.43;6.57;;;-1.30;99.90;;;;;;4947913;28;20394;-32
2022/02/28 01:31:06;;;;;;;7.57;5.25;;;-1.30;99.90;;;;;;4949778;28;20493;-32
2022/02/28 01:33:33;;;;;;;10.73;7.00;;;-1.30;99.90;;;;;;4944857;28;20038;-32
2022/02/28 01:35:59;;;;;;;14.00;7.68;;;-1.40;99.90;;;;;;4948393;28;20039;-32
2022/02/28 01:38:25;;;;;;;9.10;5.80;;;-1.40;99.90;;;;;;4942788;28;20109;-32
2022/02/28 01:40:51;;;;;;;9.77;6.95;;;-1.40;99.90;;;;;;4947276;28;20058;-32
2022/02/28 01:43:17;;;;;;;13.20;7.93;;;-1.50;99.90;;;;;;4939134;28;20046;-32
2022/02/28 01:45:43;;;;;;;16.63;7.70;;;-1.50;99.90;;;;;;4936916;28;20039;-32
2022/02/28 01:48:09;;;;;;;11.52;7.53;;;-1.60;99.90;;;;;;4936741;28;20019;-32
2022/02/28 01:50:34;;;;;;;13.95;7.75;;;-1.60;99.90;;;;;;4951990;28;20078;-32
2022/02/28 01:53:02;;;;;;;13.77;7.60;;;-1.60;99.90;;;;;;4939208;28;20034;-32
2022/02/28 01:55:28;;;;;;;12.05;7.28;;;-1.70;99.90;;;;;;4950245;28;20563;-32
2022/02/28 01:57:54;;;;;;;12.43;7.07;;;-1.70;99.90;;;;;;4946687;28;20031;-33
2022/02/28 02:00:23;;;;;;;11.48;7.30;;;-1.90;99.90;;;;;;4950576;28;20035;-39
2022/02/28 02:02:49;;;;;;;11.95;6.63;;;-2.00;99.90;;;;;;4960108;28;20035;-39
2022/02/28 02:05:15;;;;;;;11.48;7.00;;;-2.10;99.90;;;;;;4964770;28;20605;-39
2022/02/28 02:07:41;;;;;;;10.02;6.22;;;-2.00;99.90;;;;;;4968212;28;20026;-39
2022/02/28 02:10:09;;;;;;;13.65;6.88;;;-2.00;99.90;;;;;;4969975;28;20498;-39
2022/02/28 02:12:36;;;;;;;11.95;6.40;;;-1.90;99.90;;;;;;4968038;28;22059;-36
2022/02/28 02:15:02;;;;;;;12.77;7.20;;;-1.90;99.90;;;;;;4965143;28;20039;-39
2022/02/28 02:17:29;;;;;;;12.30;6.90;;;-1.80;99.90;;;;;;4963153;28;20475;-39
2022/02/28 02:19:55;;;;;;;10.80;5.90;;;-1.70;99.90;;;;;;4965517;28;20023;-39
2022/02/28 02:22:21;;;;;;;12.82;6.25;;;-1.60;99.90;;;;;;4967729;28;20614;-38
2022/02/28 02:24:51;;;;;;;13.70;6.32;;;-1.60;99.90;;;;;;4963540;28;20403;-38
2022/02/28 02:27:17;;;;;;;7.30;5.25;;;-1.60;99.90;;;;;;4962377;28;20161;-39
2022/02/28 02:29:44;;;;;;;11.90;6.78;;;-1.80;99.90;;;;;;4965650;28;20531;-38
2022/02/28 02:32:12;;;;;;;11.60;6.38;;;-1.90;99.90;;;;;;4950445;28;20035;-38
2022/02/28 02:34:38;;;;;;;9.82;6.20;;;-2.00;99.90;;;;;;4956027;28;20023;-39
2022/02/28 02:37:04;;;;;;;8.90;6.25;;;-2.00;99.90;;;;;;4946840;28;20043;-37
2022/02/28 02:39:30;;;;;;;11.60;6.50;;;-2.10;99.90;;;;;;4947408;28;20051;-38
2022/02/28 02:41:56;;;;;;;8.77;6.30;;;-2.10;99.90;;;;;;4944017;28;20420;-39
2022/02/28 02:44:22;;;;;;;10.20;6.50;;;-2.30;99.90;;;;;;4950644;28;20039;-39
2022/02/28 02:46:50;;;;;;;9.88;6.38;;;-2.30;99.90;;;;;;4947609;28;20050;-39
2022/02/28 02:49:16;;;;;;;12.98;6.80;;;-2.40;99.90;;;;;;4952382;28;20360;-39
2022/02/28 02:51:42;;;;;;;11.73;6.03;;;-2.40;99.90;;;;;;4949978;28;20083;-36
2022/02/28 02:54:08;;;;;;;11.52;6.93;;;-2.40;99.90;;;;;;4952390;28;20031;-39
2022/02/28 02:56:35;;;;;;;19.35;7.10;;;-2.40;99.90;;;;;;4950673;28;20345;-39
2022/02/28 02:59:01;;;;;;;9.70;6.93;;;-2.30;99.90;;;;;;4947507;28;20043;-37
2022/02/28 03:01:27;;;;;;;11.98;6.40;;;-2.30;99.90;;;;;;4949658;28;20087;-39
2022/02/28 03:03:53;;;;;;;12.40;6.35;;;-2.30;99.90;;;;;;4949422;28;20071;-37
2022/02/28 03:06:19;;;;;;;12.20;7.43;;;-2.20;99.90;;;;;;4949776;28;20117;-38
2022/02/28 03:08:45;;;;;;;14.00;7.20;;;-2.20;99.90;;;;;;4951406;28;20572;-39
2022/02/28 03:11:10;;;;;;;18.83;7.60;;;-2.10;99.90;;;;;;4951705;28;20099;-39
2022/02/28 03:13:36;;;;;;;10.88;7.75;;;-2.10;99.90;;;;;;4949345;28;20093;-37
2022/02/28 03:16:02;;;;;;;11.82;6.85;;;-2.10;99.90;;;;;;4944935;28;20046;-39
2022/02/28 03:18:28;;;;;;;11.18;6.78;;;-2.10;99.90;;;;;;4951897;28;20039;-39
2022/02/28 03:20:53;;;;;;;8.88;6.10;;;-2.10;99.90;;;;;;4948259;28;20038;-39
2022/02/28 03:23:19;;;;;;;7.35;5.78;;;-2.30;99.90;;;;;;4952269;28;20023;-37
2022/02/28 03:25:45;;;;;;;9.93;6.03;;;-2.40;99.90;;;;;;4950835;28;20039;-39
2022/02/28 03:28:10;;;;;;;12.60;6.57;;;-2.40;99.90;;;;;;4945761;28;20122;-37
2022/02/28 03:30:36;;;;;;;9.00;5.78;;;-2.40;99.90;;;;;;4952748;28;20759;-39
2022/02/28 03:33:02;;;;;;;9.52;6.55;;;-2.40;99.90;;;;;;4945639;28;20087;-36
2022/02/28 03:35:27;;;;;;;13.15;5.68;;;-2.40;99.90;;;;;;4940025;28;20032;-37
2022/02/28 03:37:53;;;;;;;11.05;6.72;;;-2.30;99.90;;;;;;4946955;28;20081;-38
2022/02/28 03:40:18;;;;;;;9.23;6.07;;;-2.30;99.90;;;;;;4944554;28;20400;-38
2022/02/28 03:42:44;;;;;;;9.80;5.22;;;-2.20;99.90;;;;;;4946854;28;20513;-39
2022/02/28 03:45:10;;;;;;;6.88;5.70;;;-2.10;99.90;;;;;;4947558;28;20046;-39
2022/02/28 03:47:36;;;;;;;8.45;5.90;;;-2.10;99.90;;;;;;4948280;28;20057;-38
2022/02/28 03:50:02;;;;;;;6.93;5.32;;;-2.10;99.90;;;;;;4948943;28;20031;-39
2022/02/28 03:52:27;;;;;;;10.25;6.20;;;-2.00;99.90;;;;;;4943959;28;20039;-39
2022/02/28 03:54:53;;;;;;;8.07;5.47;;;-2.00;99.90;;;;;;4945359;28;20419;-38
2022/02/28 03:57:19;;;;;;;7.72;5.90;;;-2.00;99.90;;;;;;4947707;28;20046;-39
2022/02/28 03:59:45;;;;;;;7.75;6.70;;;-2.10;99.90;;;;;;4941720;28;20495;-38
2022/02/28 04:02:10;;;;;;;7.88;5.65;;;-2.10;99.90;;;;;;4951959;28;20416;-39
2022/02/28 04:04:36;;;;;;;13.88;5.35;;;-2.30;99.90;;;;;;4950305;28;20599;-39
2022/02/28 04:07:02;;;;;;;11.60;5.93;;;-2.20;99.90;;;;;;4953893;28;20144;-36
2022/02/28 04:09:28;;;;;;;13.15;7.95;;;-2.20;99.90;;;;;;4949258;28;20051;-39
2022/02/28 04:11:53;;;;;;;11.65;6.85;;;-2.20;99.90;;;;;;4954539;28;20034;-38
2022/02/28 04:14:19;;;;;;;7.22;6.47;;;-2.10;99.90;;;;;;4952882;28;20041;-39
2022/02/28 04:16:45;;;;;;;9.18;5.63;;;-2.10;99.90;;;;;;4956165;28;20103;-38
2022/02/28 04:19:10;;;;;;;6.25;4.68;;;-2.00;99.90;;;;;;4949372;28;21263;-39
2022/02/28 04:21:36;;;;;;;10.02;5.40;;;-2.00;99.90;;;;;;4945742;28;20031;-37
2022/02/28 04:24:02;;;;;;;5.10;4.60;;;-2.10;99.90;;;;;;4953194;28;20599;-39
2022/02/28 04:26:27;;;;;;;7.47;5.53;;;-2.20;99.90;;;;;;4957906;28;20122;-37
2022/02/28 04:28:53;;;;;;;9.43;5.57;;;-2.20;99.90;;;;;;4947683;28;20035;-39
2022/02/28 04:31:19;;;;;;;7.57;5.32;;;-2.40;99.90;;;;;;4950755;28;20070;-39
2022/02/28 04:33:44;;;;;;;10.30;6.72;;;-2.60;99.90;;;;;;4949776;28;20660;-38
2022/02/28 04:36:10;;;;;;;10.20;5.65;;;-2.80;99.90;;;;;;4948467;28;20027;-38
2022/02/28 04:38:36;;;;;;;8.05;6.13;;;-2.70;99.90;;;;;;4949768;28;20031;-37
2022/02/28 04:41:01;;;;;;;7.75;5.30;;;-2.60;99.90;;;;;;4943661;28;20511;-39
2022/02/28 04:43:27;;;;;;;8.98;6.22;;;-2.60;99.90;;;;;;4950806;28;20024;-39
2022/02/28 04:45:52;;;;;;;9.05;5.35;;;-2.70;99.90;;;;;;4949861;28;20127;-39
2022/02/28 04:48:18;;;;;;;10.38;5.95;;;-2.70;99.90;;;;;;4946525;28;20373;-39
2022/02/28 04:50:43;;;;;;;10.63;6.50;;;-2.70;99.90;;;;;;4944688;28;20515;-37
2022/02/28 04:53:09;;;;;;;10.52;6.57;;;-2.70;99.90;;;;;;4946222;28;20097;-36
2022/02/28 04:55:35;;;;;;;9.75;6.20;;;-2.70;99.90;;;;;;4950390;28;20040;-38
2022/02/28 04:58:00;;;;;;;8.63;6.68;;;-2.70;99.90;;;;;;4949054;28;20181;-38
2022/02/28 05:00:26;;;;;;;9.90;5.10;;;-2.70;99.90;;;;;;4945574;28;20428;-37
2022/02/28 05:02:52;;;;;;;13.73;6.53;;;-2.80;99.90;;;;;;4951549;28;20031;-39
2022/02/28 05:05:17;;;;;;;10.13;5.72;;;-2.80;99.90;;;;;;4948894;28;20027;-38
2022/02/28 05:07:45;;;;;;;10.15;4.93;;;-2.80;99.90;;;;;;4954620;28;20023;-37
2022/02/28 05:10:10;;;;;;;9.38;6.20;;;-2.90;99.90;;;;;;4951074;28;20114;-36
2022/02/28 05:12:36;;;;;;;8.13;5.63;;;-2.90;99.90;;;;;;4945265;28;20464;-36
2022/02/28 05:15:02;;;;;;;10.18;5.95;;;-3.00;99.90;;;;;;4947836;28;20066;-39
2022/02/28 05:17:28;;;;;;;9.18;6.45;;;-2.90;99.90;;;;;;4945287;28;20503;-36
2022/02/28 05:19:53;;;;;;;6.97;5.45;;;-2.90;99.90;;;;;;4941614;28;20070;-39
2022/02/28 05:22:19;;;;;;;10.60;6.72;;;-2.90;99.90;;;;;;4947671;28;20558;-39
2022/02/28 05:24:44;;;;;;;9.80;5.78;;;-3.00;99.90;;;;;;4955422;28;20694;-37
2022/02/28 05:27:10;;;;;;;8.27;5.85;;;-3.00;99.90;;;;;;4945687;28;20027;-39
2022/02/28 05:29:39;;;;;;;9.75;5.38;;;-3.10;99.90;;;;;;4945971;28;20065;-39
2022/02/28 05:32:06;;;;;;;10.05;5.72;;;-3.10;99.90;;;;;;4953024;28;20043;-37
2022/02/28 05:34:31;;;;;;;9.50;7.05;;;-3.10;99.90;;;;;;4963019;28;20057;-36
2022/02/28 05:36:57;;;;;;;12.02;7.03;;;-3.20;99.90;;;;;;4961943;28;20058;-39
2022/02/28 05:39:23;;;;;;;13.70;5.85;;;-3.20;99.90;;;;;;4960931;28;20779;-38
2022/02/28 05:41:48;;;;;;;9.13;6.13;;;-3.20;99.90;;;;;;4962398;28;20479;-37
2022/02/28 05:44:14;;;;;;;11.30;6.43;;;-3.00;99.90;;;;;;4958418;28;20019;-36
2022/02/28 05:46:39;;;;;;;7.55;5.60;;;-3.00;99.90;;;;;;4961373;28;20121;-39
2022/02/28 05:49:05;;;;;;;8.73;6.00;;;-2.90;99.90;;;;;;4961656;28;20035;-36
2022/02/28 05:51:31;;;;;;;8.55;5.88;;;-2.80;99.90;;;;;;4958765;28;20051;-39
2022/02/28 05:53:57;;;;;;;10.80;7.63;;;-2.80;99.90;;;;;;4962983;28;20030;-37
2022/02/28 05:56:23;;;;;;;8.02;5.93;;;-2.70;99.90;;;;;;4965560;28;20078;-39
2022/02/28 05:58:49;;;;;;;7.28;5.43;;;-2.70;99.90;;;;;;4959918;28;20558;-38
2022/02/28 06:01:14;;;;;;;7.97;5.88;;;-2.70;99.90;;;;;;4952815;28;20089;-39
2022/02/28 06:03:40;;;;;;;12.95;5.95;;;-2.80;99.90;;;;;;4953292;28;20438;-38
2022/02/28 06:06:06;;;;;;;7.43;5.47;;;-2.80;99.90;;;;;;4942427;28;20042;-39
2022/02/28 06:08:32;;;;;;;11.07;5.45;;;-2.90;99.90;;;;;;4938062;28;21167;-39
2022/02/28 06:10:57;;;;;;;8.27;6.47;;;-2.90;99.90;;;;;;4944272;28;20153;-39
2022/02/28 06:13:26;;;;;;;17.33;6.45;;;-2.80;99.90;;;;;;4950453;28;20708;-37
2022/02/28 06:15:52;;;;;;;;;;;-2.80;99.90;;;;;;4950021;28;20107;-39
2022/02/28 06:18:17;;;;;;;7.13;4.60;;;-2.80;99.90;;;;;;4945483;28;19946;-39
2022/02/28 06:20:43;;;;;;;10.95;5.80;;;-2.80;99.90;;;;;;4951695;28;20167;-39
2022/02/28 06:23:14;;;;;;;8.88;5.20;;;-2.90;99.90;;;;;;4941176;28;20035;-37
2022/02/28 06:25:40;;;;;;;9.25;5.55;;;-3.00;99.90;;;;;;4943988;28;20110;-37
2022/02/28 06:28:06;;;;;;;9.52;4.82;;;-3.10;99.90;;;;;;4943182;28;20027;-39
2022/02/28 06:30:31;;;;;;;10.38;4.72;;;-3.00;99.90;;;;;;4946892;28;20051;-38
2022/02/28 06:32:57;;;;;;;9.07;6.50;;;-3.10;99.90;;;;;;4941062;28;20038;-39
2022/02/28 06:35:23;;;;;;;9.77;7.22;;;-3.10;99.90;;;;;;4957149;28;20046;-39
2022/02/28 06:37:48;;;;;;;9.43;4.65;;;-3.10;99.90;;;;;;4946485;28;20058;-39
2022/02/28 06:40:14;;;;;;;8.15;6.00;;;-3.10;99.90;;;;;;4944645;28;20110;-36
2022/02/28 06:42:40;;;;;;;15.90;6.80;;;-3.00;99.90;;;;;;4944890;28;20496;-39
2022/02/28 06:45:06;;;;;;;11.85;5.90;;;-3.00;99.90;;;;;;4944328;28;20086;-39
2022/02/28 06:47:32;;;;;;;9.43;5.82;;;-3.00;99.90;;;;;;4938367;28;20459;-39
2022/02/28 06:49:57;;;;;;;10.00;5.90;;;-3.20;99.90;;;;;;4947911;28;20454;-38
2022/02/28 06:52:24;;;;;;;8.18;5.82;;;-3.30;99.90;;;;;;4949502;28;20043;-37
2022/02/28 06:54:53;;;;;;;12.57;7.20;;;-3.30;99.90;;;;;;4953033;28;20396;-38
2022/02/28 06:57:19;;;;;;;12.88;7.05;;;-3.20;99.90;;;;;;4951529;28;20396;-36
2022/02/28 06:59:45;;;;;;;9.60;6.20;;;-3.10;99.90;;;;;;4951843;28;20031;-39
2022/02/28 07:02:10;;;;;;;9.43;6.53;;;-3.00;99.90;;;;;;4944240;28;20046;-37
2022/02/28 07:04:36;;;;;;;11.80;4.35;;;-2.90;99.90;;;;;;4948847;28;20455;-39
2022/02/28 07:07:02;;;;;;;17.55;7.75;;;-2.80;99.90;;;;;;4947547;28;20036;-36
2022/02/28 07:09:29;;;;;;;11.98;6.97;;;-2.70;99.90;;;;;;4950761;28;20480;-36
2022/02/28 07:11:54;;;;;;;10.45;6.97;;;-2.70;99.90;;;;;;4954760;28;20120;-37
2022/02/28 07:14:20;;;;;;;14.77;7.05;;;-2.70;99.90;;;;;;4947237;28;20595;-36
2022/02/28 07:16:46;;;;;;;6.97;4.68;;;-2.60;99.90;;;;;;4950211;28;20118;-39
2022/02/28 07:19:11;;;;;;;10.40;6.78;;;-2.60;99.90;;;;;;4955183;28;20039;-39
2022/02/28 07:21:38;;;;;;;8.90;5.22;;;-2.60;99.90;;;;;;4951854;28;20042;-37
2022/02/28 07:24:04;;;;;;;10.27;7.00;;;-2.50;99.90;;;;;;4950114;28;20537;-39
2022/02/28 07:26:30;;;;;;;10.82;6.57;;;-2.50;99.90;;;;;;4951102;28;20043;-39
2022/02/28 07:28:56;;;;;;;11.07;5.70;;;-2.50;99.90;;;;;;4948509;28;20374;-36
2022/02/28 07:31:22;;;;;;;9.07;6.78;;;-2.40;99.90;;;;;;4945771;28;20043;-39
2022/02/28 07:33:48;;;;;;;8.82;5.90;;;-2.40;99.90;;;;;;4957709;28;20030;-38
2022/02/28 07:36:13;;;;;;;13.05;6.55;;;-2.30;99.90;;;;;;4949521;28;20700;-37
2022/02/28 07:38:39;;;;;;;10.77;6.78;;;-2.40;99.90;;;;;;4951573;28;20082;-38
2022/02/28 07:41:05;;;;;;;30.42;7.75;;;-2.40;99.90;;;;;;4956430;28;20027;-38
2022/02/28 07:43:31;;;;;;;12.95;7.40;;;-2.30;99.90;;;;;;4954809;28;20035;-38
2022/02/28 07:45:59;;;;;;;16.60;7.95;;;-2.20;99.90;;;;;;4966089;28;20401;-39
2022/02/28 07:48:25;;;;;;;10.02;6.45;;;-2.20;99.90;;;;;;4947405;28;20131;-37
2022/02/28 07:50:51;;;;;;;13.45;6.85;;;-2.00;99.90;;;;;;4954557;28;20528;-39
2022/02/28 07:53:18;;;;;;;11.32;6.22;;;-1.90;99.90;;;;;;4952304;28;20110;-39
2022/02/28 07:55:44;;;;;;;10.70;7.68;;;-1.70;99.90;;;;;;4957548;28;20030;-36
2022/02/28 07:58:09;;;;;;;12.30;6.78;;;-1.50;99.90;;;;;;4947584;28;20090;-38
2022/02/28 08:00:35;;;;;;;9.38;6.75;;;-1.40;99.90;;;;;;4956366;28;20034;-39
2022/02/28 08:03:01;;;;;;;11.80;7.05;;;-1.20;99.90;;;;;;4943764;28;20031;-39
2022/02/28 08:05:29;;;;;;;12.55;7.95;;;-1.00;99.90;;;;;;4959057;28;20035;-39
2022/02/28 08:07:55;;;;;;;10.15;7.65;;;-0.90;99.90;;;;;;4955591;28;20058;-37
2022/02/28 08:10:21;;;;;;;12.88;7.32;;;-0.80;99.90;;;;;;4947160;28;20043;-38
2022/02/28 08:12:47;;;;;;;10.57;6.60;;;-0.80;99.90;;;;;;4951514;28;20031;-38
2022/02/28 08:15:13;;;;;;;12.32;7.18;;;-0.60;99.90;;;;;;4956980;28;20051;-39
2022/02/28 08:17:38;;;;;;;11.23;6.45;;;-0.50;99.90;;;;;;4954245;28;22017;-38
2022/02/28 08:20:05;;;;;;;21.88;8.93;;;-0.40;99.90;;;;;;4951561;28;20041;-37
2022/02/28 08:22:31;;;;;;;15.98;9.55;;;-0.40;99.90;;;;;;4945072;28;20027;-39
2022/02/28 08:24:58;;;;;;;17.13;8.20;;;-0.20;99.90;;;;;;4955101;28;20022;-38
2022/02/28 08:27:24;;;;;;;14.57;8.43;;;-0.10;99.90;;;;;;4951965;28;22603;-38
2022/02/28 08:29:50;;;;;;;13.00;7.45;;;0.00;99.90;;;;;;4953494;28;21631;-39
2022/02/28 08:32:15;;;;;;;12.63;7.63;;;0.30;99.90;;;;;;4954519;28;20034;-36
2022/02/28 08:34:41;;;;;;;14.80;6.90;;;0.40;99.90;;;;;;4944646;28;20562;-39
2022/02/28 08:37:07;;;;;;;12.85;7.93;;;0.50;99.90;;;;;;4955769;28;20023;-39
2022/02/28 08:39:32;;;;;;;14.48;8.70;;;0.60;99.90;;;;;;4946125;28;20019;-39
2022/02/28 08:41:58;;;;;;;15.93;8.73;;;0.60;99.90;;;;;;4949602;28;20049;-39
2022/02/28 08:44:24;;;;;;;18.00;9.13;;;0.70;99.90;;;;;;4946108;28;20511;-39
2022/02/28 08:46:49;;;;;;;13.75;7.80;;;0.90;99.90;;;;;;4950277;28;20047;-38
2022/02/28 08:49:18;;;;;;;15.18;8.45;;;1.00;99.90;;;;;;4946508;28;20124;-39
2022/02/28 08:51:44;;;;;;;12.02;8.02;;;1.10;99.90;;;;;;4951223;28;20500;-39
2022/02/28 08:54:10;;;;;;;16.90;8.40;;;1.30;99.90;;;;;;4952743;28;20525;-39
2022/02/28 08:56:36;;;;;;;13.63;8.18;;;1.30;99.90;;;;;;4955948;28;20098;-38
2022/02/28 08:59:01;;;;;;;18.88;8.70;;;1.40;99.90;;;;;;4948444;28;20492;-37
2022/02/28 09:01:27;;;;;;;15.90;9.88;;;1.50;99.90;;;;;;4957095;28;20039;-36
2022/02/28 09:03:53;;;;;;;16.30;8.82;;;1.60;99.90;;;;;;4955647;28;20071;-38
2022/02/28 09:06:19;;;;;;;17.77;7.97;;;1.70;99.90;;;;;;4948455;28;20042;-38
2022/02/28 09:08:44;;;;;;;17.48;8.15;;;1.70;99.90;;;;;;4952503;28;20489;-37
2022/02/28 09:11:10;;;;;;;15.38;9.25;;;1.90;99.90;;;;;;4939112;28;20027;-39
2022/02/28 09:13:35;;;;;;;18.38;9.63;;;1.90;99.90;;;;;;4953816;28;20377;-39
2022/02/28 09:16:02;;;;;;;15.68;9.07;;;2.00;99.90;;;;;;4949271;28;20035;-39
2022/02/28 09:18:27;;;;;;;17.92;8.45;;;2.10;99.90;;;;;;4952388;28;20027;-39
2022/02/28 09:20:53;;;;;;;17.63;8.48;;;2.20;99.90;;;;;;4949091;28;20031;-39
2022/02/28 09:23:19;;;;;;;17.85;9.32;;;2.30;99.90;;;;;;4961146;28;20038;-39
2022/02/28 09:25:44;;;;;;;17.17;9.05;;;2.40;99.90;;;;;;4949915;28;20465;-37
2022/02/28 09:28:10;;;;;;;15.38;8.10;;;2.40;99.90;;;;;;4951018;28;20028;-36
2022/02/28 09:30:36;;;;;;;13.77;7.85;;;2.60;98.80;;;;;;4947822;28;20035;-40
2022/02/28 09:33:01;;;;;;;17.15;9.38;;;2.60;97.90;;;;;;4954819;28;20054;-39
2022/02/28 09:35:27;;;;;;;15.40;8.88;;;2.70;99.90;;;;;;4945719;28;20031;-38
2022/02/28 09:37:53;;;;;;;13.90;8.80;;;2.80;99.10;;;;;;4953813;28;20034;-39
2022/02/28 09:40:26;;;;;;;19.83;9.63;;;2.90;97.50;;;;;;4941542;28;20461;-37
2022/02/28 09:42:55;;;;;;;11.30;7.18;;;3.00;97.90;;;;;;4958549;28;20035;-36
2022/02/28 09:45:21;;;;;;;12.75;7.57;;;3.00;95.40;;;;;;4946850;28;20034;-36
2022/02/28 09:47:48;;;;;;;15.48;8.98;;;3.10;94.90;;;;;;4951020;28;20943;-39
2022/02/28 09:50:14;;;;;;;14.38;7.80;;;3.30;96.90;;;;;;4948283;28;20023;-39
2022/02/28 09:52:39;;;;;;;13.98;8.25;;;3.50;96.20;;;;;;4940708;28;20035;-36
2022/02/28 09:55:05;;;;;;;15.65;8.02;;;3.70;92.80;;;;;;4953781;28;20035;-39
2022/02/28 09:57:31;;;;;;;23.10;9.57;;;3.50;92.50;;;;;;4944538;28;20494;-39
2022/02/28 09:59:57;;;;;;;16.85;9.00;;;3.60;91.90;;;;;;4949081;28;20486;-40
2022/02/28 10:02:23;;;;;;;16.45;9.20;;;3.60;93.40;;;;;;4952077;28;20034;-40
2022/02/28 10:04:51;;;;;;;15.70;9.02;;;3.90;92.70;;;;;;4946476;28;20035;-38
2022/02/28 10:07:19;;;;;;;11.27;8.15;;;4.00;94.00;;;;;;4948383;28;20070;-38
2022/02/28 10:09:44;;;;;;;14.52;8.80;;;3.90;89.80;;;;;;4952657;28;20123;-40
2022/02/28 10:12:10;;;;;;;12.32;8.38;;;4.00;91.10;;;;;;4946101;28;20117;-37
2022/02/28 10:14:35;;;;;;;15.85;8.65;;;4.00;90.00;;;;;;4946930;28;20027;-39
2022/02/28 10:17:03;;;;;;;17.05;8.18;;;4.10;86.00;;;;;;4954698;28;20459;-39
2022/02/28 10:19:32;;;;;;;14.93;8.02;;;4.10;81.60;;;;;;4941443;28;20122;-39
2022/02/28 10:22:04;;;;;;;13.10;8.30;;;4.20;81.80;;;;;;4949578;28;20046;-39
2022/02/28 10:24:42;;;;;;;15.35;6.95;;;4.30;82.70;;;;;;4947426;28;20031;-39
2022/02/28 10:27:08;;;;;;;11.95;6.95;;;4.40;73.30;;;;;;4954028;28;20109;-38
2022/02/28 10:29:40;;;;;;;15.07;7.70;;;4.50;74.40;;;;;;4952607;28;20031;-38
2022/02/28 10:32:09;;;;;;;13.98;8.32;;;4.70;75.10;;;;;;4946102;28;20031;-39
2022/02/28 10:37:25;;;;;;;11.73;7.68;;;4.60;72.50;;;;;;4935945;28;20431;-37
2022/02/28 10:40:01;;;;;;;11.30;7.35;;;4.70;69.00;;;;;;4953023;28;20030;-39
2022/02/28 10:42:52;;;;;;;16.92;8.85;;;4.60;70.90;;;;;;4951124;28;20030;-40
2022/02/28 10:45:22;;;;;;;14.13;8.00;;;4.80;73.70;;;;;;4955238;28;20058;-39
2022/02/28 10:47:49;;;;;;;12.90;7.45;;;4.90;83.20;;;;;;4948961;28;20031;-35
2022/02/28 10:50:38;;;;;;;14.35;8.00;;;4.90;66.30;;;;;;4956070;28;20030;-37
2022/02/28 10:53:10;;;;;;;11.98;7.45;;;4.80;67.20;;;;;;4956125;28;20039;-39
2022/02/28 10:55:36;;;;;;;12.75;7.10;;;4.80;63.90;;;;;;4960081;28;20027;-36
2022/02/28 10:58:10;;;;;;;12.18;8.20;;;4.80;64.40;;;;;;4947418;28;20428;-39
2022/02/28 11:00:56;;;;;;;12.57;6.82;;;4.80;65.40;;;;;;4947448;28;20047;-37
2022/02/28 11:03:22;;;;;;;13.00;7.95;;;4.90;63.50;;;;;;4945615;28;20082;-36
2022/02/28 11:05:52;;;;;;;11.82;6.82;;;4.90;62.50;;;;;;4945865;28;20038;-39
2022/02/28 11:08:19;;;;;;;15.25;8.25;;;4.90;67.90;;;;;;4948523;28;20094;-39
2022/02/28 11:10:45;;;;;;;14.25;7.90;;;4.90;65.10;;;;;;4955653;28;20019;-37
2022/02/28 11:13:11;;;;;;;16.17;8.38;;;5.00;72.80;;;;;;4945504;28;20669;-37
2022/02/28 11:15:37;;;;;;;16.08;8.40;;;4.90;63.60;;;;;;4947797;28;20123;-38
2022/02/28 11:18:02;;;;;;;15.20;8.73;;;5.10;68.80;;;;;;4947968;28;20514;-39
2022/02/28 11:20:28;;;;;;;16.70;9.25;;;5.10;66.40;;;;;;4945432;28;20031;-39
2022/02/28 11:22:53;;;;;;;15.55;8.57;;;5.00;64.20;;;;;;4958263;28;20133;-39
2022/02/28 11:25:21;;;;;;;11.77;6.80;;;5.00;63.30;;;;;;4949311;28;20071;-36
2022/02/28 11:27:48;;;;;;;13.37;7.33;;;4.80;63.70;;;;;;4949124;28;20448;-40
2022/02/28 11:30:21;;;;;;;14.32;7.82;;;4.80;63.30;;;;;;4946084;28;20289;-37
2022/02/28 11:32:56;;;;;;;11.18;7.15;;;4.90;62.90;;;;;;4961951;28;20808;-35
2022/02/28 11:35:49;;;;;;;20.60;9.45;;;5.00;62.70;;;;;;4965134;28;20114;-38
2022/02/28 11:38:17;;;;;;;11.25;7.85;;;5.30;65.80;;;;;;4968711;28;20042;-37
2022/02/28 11:40:49;;;;;;;16.83;8.38;;;5.10;64.90;;;;;;4964509;28;20062;-38
2022/02/28 11:43:18;;;;;;;13.18;7.97;;;5.10;64.10;;;;;;4963314;28;20590;-37
2022/02/28 11:45:56;;;;;;;13.80;8.20;;;5.10;63.10;;;;;;4957769;28;20765;-36
2022/02/28 11:48:24;;;;;;;13.30;7.88;;;5.10;60.50;;;;;;4968300;28;20022;-39
2022/02/28 11:50:56;;;;;;;15.48;8.65;;;5.00;64.20;;;;;;4964386;28;20086;-38
2022/02/28 11:53:41;;;;;;;15.25;8.60;;;5.10;62.80;;;;;;4965540;28;20578;-38
2022/02/28 11:56:36;;;;;;;13.63;7.80;;;5.00;61.70;;;;;;4978371;28;20031;-39
2022/02/28 11:59:14;;;;;;;12.63;6.80;;;5.10;63.10;;;;;;4961439;28;20151;-37
2022/02/28 12:02:09;;;;;;;11.73;8.15;;;5.40;65.00;;;;;;4955932;28;20039;-38
2022/02/28 12:04:40;;;;;;;13.20;7.90;;;5.50;60.50;;;;;;4945127;28;20185;-37
2022/02/28 12:07:09;;;;;;;11.05;7.47;;;5.30;59.50;;;;;;4945962;28;20031;-39
2022/02/28 12:09:45;;;;;;;13.20;8.05;;;5.30;62.00;;;;;;4946926;28;20019;-39
2022/02/28 12:12:20;;;;;;;15.95;8.15;;;5.30;61.00;;;;;;4945894;28;20480;-36
2022/02/28 12:14:59;;;;;;;11.95;7.40;;;5.40;59.30;;;;;;4953048;28;20085;-39
2022/02/28 12:17:31;;;;;;;16.42;8.40;;;5.50;62.10;;;;;;4944463;28;20039;-39
2022/02/28 12:20:15;;;;;;;13.45;7.95;;;5.50;59.50;;;;;;4952904;28;20106;-39
2022/02/28 12:22:58;;;;;;;12.90;7.63;;;5.20;60.70;;;;;;4943470;28;20118;-36
2022/02/28 12:25:44;;;;;;;14.43;8.63;;;5.10;60.40;;;;;;4946729;28;20057;-39
2022/02/28 12:28:26;;;;;;;13.50;7.47;;;5.20;66.40;;;;;;4949084;28;20023;-37
2022/02/28 12:31:06;;;;;;;14.73;9.55;;;5.40;60.20;;;;;;4946610;28;20057;-38
2022/02/28 12:33:35;;;;;;;17.63;9.45;;;5.40;60.70;;;;;;4957884;28;20567;-37
2022/02/28 12:36:16;;;;;;;11.48;7.55;;;5.30;65.80;;;;;;4948240;28;20503;-39
2022/02/28 12:38:49;;;;;;;16.90;8.38;;;5.50;64.50;;;;;;4952323;28;20123;-36
2022/02/28 12:41:17;;;;;;;13.50;8.05;;;5.80;65.30;;;;;;4948212;28;20031;-36
2022/02/28 12:43:44;;;;;;;14.63;8.45;;;5.70;63.20;;;;;;4951960;28;20070;-39
2022/02/28 12:46:32;;;;;;;13.20;7.50;;;5.90;60.60;;;;;;4948196;28;20035;-39